Time;durP1;ratioP1;P1;durP2;ratioP2;P2;SDS_P1;SDS_P2;PMS_P1;PMS_P2;Temp;Humidity;BMP_temperature;BMP_pressure;BME280_temperature;BME280_humidity;BME280_pressure;Samples;Min_cycle;Max_cycle;Signal;HPM_P1;HPM_P2
2021/04/16 00:00:32;;;;;;;;;;;-0.80;99.90;;;;;;5070832;28;20388;-72
2021/04/16 00:02:58;;;;;;;;;;;-0.80;99.90;;;;;;5070510;28;19970;-72
2021/04/16 00:05:23;;;;;;;;;;;-0.80;99.90;;;;;;5069102;28;19912;-72
2021/04/16 00:07:49;;;;;;;;;;;-0.80;99.90;;;;;;5069351;28;19909;-72
2021/04/16 00:10:19;;;;;;;;;;;-0.80;99.90;;;;;;5070609;28;19909;-76
2021/04/16 00:12:45;;;;;;;;;;;-0.80;99.90;;;;;;5070734;28;19955;-75
2021/04/16 00:15:12;;;;;;;;;;;-0.80;99.90;;;;;;5071301;28;20009;-72
2021/04/16 00:17:38;;;;;;;;;;;-0.80;99.90;;;;;;5073046;28;20053;-72
2021/04/16 00:20:06;;;;;;;;;;;-0.80;99.90;;;;;;5073728;28;20367;-72
2021/04/16 00:22:31;;;;;;;;;;;-0.80;99.90;;;;;;5074050;28;19912;-72
2021/04/16 00:24:57;;;;;;;;;;;-0.80;99.90;;;;;;5074139;28;20399;-74
2021/04/16 00:27:22;;;;;;;;;;;-0.90;99.90;;;;;;5073046;28;19909;-72
2021/04/16 00:29:48;;;;;;;;;;;-0.90;99.90;;;;;;5074090;28;19959;-72
2021/04/16 00:32:13;;;;;;;;;;;-0.90;99.90;;;;;;5073771;28;19909;-72
2021/04/16 00:34:39;;;;;;;;;;;-0.90;99.90;;;;;;5072395;28;19912;-73
2021/04/16 00:37:04;;;;;;;;;;;-0.90;99.90;;;;;;5072794;28;20170;-71
2021/04/16 00:39:30;;;;;;;;;;;-0.90;99.90;;;;;;5073869;28;19908;-72
2021/04/16 00:41:55;;;;;;;;;;;-1.00;99.90;;;;;;5073565;28;19947;-74
2021/04/16 00:44:21;;;;;;;;;;;-1.00;99.90;;;;;;5073707;28;19955;-72
2021/04/16 00:46:52;;;;;;;;;;;-1.00;99.90;;;;;;5072597;28;19908;-71
2021/04/16 00:49:29;;;;;;;;;;;-1.00;99.90;;;;;;5073367;28;19908;-74
2021/04/16 00:51:56;;;;;;;;;;;-1.00;99.90;;;;;;5073638;28;19915;-72
2021/04/16 00:54:24;;;;;;;;;;;-1.10;99.90;;;;;;5073582;28;20078;-73
2021/04/16 00:56:50;;;;;;;;;;;-1.10;99.90;;;;;;5072380;28;20623;-72
2021/04/16 00:59:17;;;;;;;;;;;-1.20;99.90;;;;;;5073524;28;19961;-73
2021/04/16 01:01:42;;;;;;;;;;;-1.20;99.90;;;;;;5073285;28;20285;-72
2021/04/16 01:04:08;;;;;;;;;;;-1.20;99.90;;;;;;5072201;28;19912;-73
2021/04/16 01:06:34;;;;;;;;;;;-1.20;99.90;;;;;;5071831;28;19908;-76
2021/04/16 01:08:59;;;;;;;;;;;-1.30;99.90;;;;;;5073306;28;19915;-72
2021/04/16 01:11:28;;;;;;;;;;;-1.30;99.90;;;;;;5073437;28;19908;-74
2021/04/16 01:13:53;;;;;;;;;;;-1.30;99.90;;;;;;5073284;28;19916;-72
2021/04/16 01:16:22;;;;;;;;;;;-1.40;99.90;;;;;;5071997;28;19912;-72
2021/04/16 01:18:49;;;;;;;;;;;-1.40;99.90;;;;;;5073094;28;20281;-72
2021/04/16 01:21:16;;;;;;;;;;;-1.40;99.90;;;;;;5072887;28;19912;-75
2021/04/16 01:23:55;;;;;;;;;;;-1.40;99.90;;;;;;5073105;28;20049;-72
2021/04/16 01:26:22;;;;;;;;;;;-1.50;99.90;;;;;;5071467;28;19908;-74
2021/04/16 01:28:48;;;;;;;;;;;-1.50;99.90;;;;;;5072097;28;19908;-72
2021/04/16 01:31:16;;;;;;;;;;;-1.50;99.90;;;;;;5072993;28;19916;-72
2021/04/16 01:33:42;;;;;;;;;;;-1.50;99.90;;;;;;5071925;28;20011;-72
2021/04/16 01:36:12;;;;;;;;;;;-1.50;99.90;;;;;;5073740;28;19916;-72
2021/04/16 01:38:38;;;;;;;;;;;-1.50;99.90;;;;;;5093006;28;19936;-72
2021/04/16 01:41:03;;;;;;;;;;;-1.50;99.90;;;;;;5092855;28;19931;-73
2021/04/16 01:43:31;;;;;;;;;;;-1.40;99.90;;;;;;5092713;28;20365;-75
2021/04/16 01:46:00;;;;;;;;;;;-1.40;99.90;;;;;;5091651;28;19908;-72
2021/04/16 01:48:33;;;;;;;;;;;-1.50;99.90;;;;;;5092853;28;19908;-72
2021/04/16 01:50:58;;;;;;;;;;;-1.60;99.90;;;;;;5092418;28;19908;-72
2021/04/16 01:53:24;;;;;;;;;;;-1.60;99.90;;;;;;5092679;28;19934;-72
2021/04/16 01:55:50;;;;;;;;;;;-1.60;99.90;;;;;;5091443;28;20352;-73
2021/04/16 01:58:16;;;;;;;;;;;-1.70;99.90;;;;;;5092512;28;19961;-72
2021/04/16 02:00:41;;;;;;;;;;;-1.70;99.90;;;;;;5092589;28;19908;-75
2021/04/16 02:03:06;;;;;;;;;;;-1.70;99.90;;;;;;5092473;28;20412;-72
2021/04/16 02:05:32;;;;;;;;;;;-1.70;99.90;;;;;;5090007;28;20425;-73
2021/04/16 02:07:58;;;;;;;;;;;-1.70;99.90;;;;;;5091714;28;19919;-73
2021/04/16 02:10:23;;;;;;;;;;;-1.70;99.90;;;;;;5092317;28;19915;-76
2021/04/16 02:12:50;;;;;;;;;;;-1.80;99.90;;;;;;5092216;28;20292;-72
2021/04/16 02:15:16;;;;;;;;;;;-1.80;99.90;;;;;;5092037;28;19919;-73
2021/04/16 02:17:41;;;;;;;;;;;-1.90;99.90;;;;;;5091060;28;19908;-72
2021/04/16 02:20:09;;;;;;;;;;;-1.90;99.90;;;;;;5091976;28;20095;-72
2021/04/16 02:22:35;;;;;;;;;;;-1.80;99.90;;;;;;5092110;28;19943;-72
2021/04/16 02:25:00;;;;;;;;;;;-1.80;99.90;;;;;;5092030;28;20378;-72
2021/04/16 02:27:26;;;;;;;;;;;-1.90;99.90;;;;;;5090851;28;19914;-73
2021/04/16 02:29:52;;;;;;;;;;;-1.90;99.90;;;;;;5091782;28;20401;-75
2021/04/16 02:32:18;;;;;;;;;;;-1.90;99.90;;;;;;5091894;28;19908;-76
2021/04/16 02:34:44;;;;;;;;;;;-1.90;99.90;;;;;;5076946;28;20352;-72
2021/04/16 02:37:12;;;;;;;;;;;-1.90;99.90;;;;;;5070218;28;20409;-72
2021/04/16 02:39:38;;;;;;;;;;;-1.90;99.90;;;;;;5071015;28;20353;-76
2021/04/16 02:42:04;;;;;;;;;;;-1.90;99.90;;;;;;5071451;28;20011;-72
2021/04/16 02:44:30;;;;;;;;;;;-1.90;99.90;;;;;;5071485;28;19912;-72
2021/04/16 02:46:55;;;;;;;;;;;-1.90;99.90;;;;;;5070433;28;20258;-72
2021/04/16 02:49:21;;;;;;;;;;;-1.90;99.90;;;;;;5071246;28;19954;-73
2021/04/16 02:51:47;;;;;;;;;;;-2.00;99.90;;;;;;5071101;28;19912;-74
2021/04/16 02:54:12;;;;;;;;;;;-2.00;99.90;;;;;;5071662;28;20385;-76
2021/04/16 02:56:38;;;;;;;;;;;-2.00;99.90;;;;;;5070144;28;20332;-72
2021/04/16 02:59:03;;;;;;;;;;;-2.00;99.90;;;;;;5071165;28;19912;-72
2021/04/16 03:01:29;;;;;;;;;;;-2.10;99.90;;;;;;5071163;28;20415;-72
2021/04/16 03:03:55;;;;;;;;;;;-2.10;99.90;;;;;;5069996;28;20492;-75
2021/04/16 03:06:20;;;;;;;;;;;-2.10;99.90;;;;;;5069836;28;19934;-72
2021/04/16 03:08:50;;;;;;;;;;;-2.20;99.90;;;;;;5071384;28;19916;-72
2021/04/16 03:11:16;;;;;;;;;;;-2.20;99.90;;;;;;5071163;28;20353;-73
2021/04/16 03:13:41;;;;;;;;;;;-2.20;99.90;;;;;;5070843;28;20078;-72
2021/04/16 03:16:07;;;;;;;;;;;-2.20;99.90;;;;;;5069890;28;20395;-76
2021/04/16 03:18:32;;;;;;;;;;;-2.20;99.90;;;;;;5071087;28;19912;-72
2021/04/16 03:20:58;;;;;;;;;;;-2.20;99.90;;;;;;5070881;28;19931;-72
2021/04/16 03:23:23;;;;;;;;;;;-2.20;99.90;;;;;;5071007;28;19908;-73
2021/04/16 03:25:49;;;;;;;;;;;-2.10;99.90;;;;;;5069801;28;19962;-72
2021/04/16 03:28:14;;;;;;;;;;;-2.10;99.90;;;;;;5070923;28;20276;-72
2021/04/16 03:30:40;;;;;;;;;;;-2.20;99.90;;;;;;5071168;28;19915;-72
2021/04/16 03:33:05;;;;;;;;;;;-2.20;99.90;;;;;;5070895;28;20346;-73
2021/04/16 03:35:31;;;;;;;;;;;-2.20;99.90;;;;;;5077452;28;19916;-72
2021/04/16 03:37:57;;;;;;;;;;;-2.20;99.90;;;;;;5069838;28;20331;-72
2021/04/16 03:40:24;;;;;;;;;;;-2.30;99.90;;;;;;5070975;28;20274;-72
2021/04/16 03:42:50;;;;;;;;;;;-2.30;99.90;;;;;;5070694;28;19999;-74
2021/04/16 03:45:16;;;;;;;;;;;-2.40;99.90;;;;;;5070873;28;19944;-72
2021/04/16 03:47:42;;;;;;;;;;;-2.40;99.90;;;;;;5069290;28;20086;-72
2021/04/16 03:50:07;;;;;;;;;;;-2.40;99.90;;;;;;5071070;28;19912;-72
2021/04/16 03:52:33;;;;;;;;;;;-2.40;99.90;;;;;;5075050;28;20265;-72
2021/04/16 03:54:58;;;;;;;;;;;-2.50;99.90;;;;;;5074953;28;19916;-72
2021/04/16 03:57:24;;;;;;;;;;;-2.50;99.90;;;;;;5073543;28;19955;-74
2021/04/16 03:59:50;;;;;;;;;;;-2.50;99.90;;;;;;5074698;28;19908;-72
2021/04/16 04:02:15;;;;;;;;;;;-2.50;99.90;;;;;;5074435;28;19919;-72
2021/04/16 04:04:41;;;;;;;;;;;-2.40;99.90;;;;;;5073365;28;20015;-72
2021/04/16 04:07:06;;;;;;;;;;;-2.40;99.90;;;;;;5072859;28;19908;-72
2021/04/16 04:09:34;;;;;;;;;;;-2.50;99.90;;;;;;5074369;28;19916;-76
2021/04/16 04:11:59;;;;;;;;;;;-2.50;99.90;;;;;;5074143;28;19908;-72
2021/04/16 04:14:25;;;;;;;;;;;-2.50;99.90;;;;;;5074283;28;20046;-72
2021/04/16 04:16:50;;;;;;;;;;;-2.50;99.90;;;;;;5073460;28;19958;-73
2021/04/16 04:19:17;;;;;;;;;;;-2.50;99.90;;;;;;5074152;28;19916;-72
2021/04/16 04:21:42;;;;;;;;;;;-2.40;99.90;;;;;;5073830;28;20159;-72
2021/04/16 04:24:08;;;;;;;;;;;-2.40;99.90;;;;;;5073808;28;19977;-72
2021/04/16 04:26:33;;;;;;;;;;;-2.40;99.90;;;;;;5072855;28;20003;-72
2021/04/16 04:28:59;;;;;;;;;;;-2.40;99.90;;;;;;5073992;28;20366;-72
2021/04/16 04:31:24;;;;;;;;;;;-2.40;99.90;;;;;;5073879;28;19914;-72
2021/04/16 04:33:50;;;;;;;;;;;-2.40;99.90;;;;;;5072784;28;20301;-72
2021/04/16 04:36:15;;;;;;;;;;;-2.40;99.90;;;;;;5071921;28;19917;-72
2021/04/16 04:38:41;;;;;;;;;;;-2.40;99.90;;;;;;5073625;28;19912;-75
2021/04/16 04:41:06;;;;;;;;;;;-2.40;99.90;;;;;;5073718;28;19915;-72
2021/04/16 04:43:32;;;;;;;;;;;-2.50;99.90;;;;;;5073731;28;20453;-72
2021/04/16 04:45:57;;;;;;;;;;;-2.50;99.90;;;;;;5072585;28;19954;-72
2021/04/16 04:48:23;;;;;;;;;;;-2.50;99.90;;;;;;5073326;28;19912;-73
2021/04/16 04:50:48;;;;;;;;;;;-2.50;99.90;;;;;;5073471;28;19909;-73
2021/04/16 04:53:13;;;;;;;;;;;-2.50;99.90;;;;;;5073530;28;19926;-72
2021/04/16 04:55:39;;;;;;;;;;;-2.40;99.90;;;;;;5072665;28;19913;-76
2021/04/16 04:58:04;;;;;;;;;;;-2.40;99.90;;;;;;5073423;28;19931;-72
2021/04/16 05:00:30;;;;;;;;;;;-2.40;99.90;;;;;;5073397;28;20404;-72
2021/04/16 05:02:56;;;;;;;;;;;-2.40;99.90;;;;;;5073041;28;19947;-73
2021/04/16 05:05:22;;;;;;;;;;;-2.40;99.90;;;;;;5081145;28;19952;-75
2021/04/16 05:07:47;;;;;;;;;;;-2.50;99.90;;;;;;5073842;28;20007;-75
2021/04/16 05:10:13;;;;;;;;;;;-2.50;99.90;;;;;;5062637;28;20364;-72
2021/04/16 05:12:39;;;;;;;;;;;-2.40;99.90;;;;;;5064001;28;19916;-72
2021/04/16 05:15:05;;;;;;;;;;;-2.40;99.90;;;;;;5061979;28;19913;-72
2021/04/16 05:17:31;;;;;;;;;;;-2.30;99.90;;;;;;5061726;28;19913;-72
2021/04/16 05:19:56;;;;;;;;;;;-2.20;99.90;;;;;;5063460;28;19916;-73
2021/04/16 05:22:22;;;;;;;;;;;-2.10;99.90;;;;;;5061211;28;19923;-75
2021/04/16 05:24:47;;;;;;;;;;;-2.10;99.90;;;;;;5063203;28;19928;-72
2021/04/16 05:27:14;;;;;;;;;;;-2.00;99.90;;;;;;5051953;28;20278;-72
2021/04/16 05:29:40;;;;;;;;;;;-2.00;99.90;;;;;;5066424;28;19917;-72
2021/04/16 05:32:06;;;;;;;;;;;-1.90;99.90;;;;;;5062912;28;19975;-72
2021/04/16 05:34:32;;;;;;;;;;;-1.80;99.90;;;;;;5067862;28;20365;-72
2021/04/16 05:36:58;;;;;;;;;;;-1.70;99.90;;;;;;5066115;28;19920;-72
2021/04/16 05:39:24;;;;;;;;;;;-1.60;99.90;;;;;;5071308;28;19962;-73
2021/04/16 05:41:49;;;;;;;;;;;-1.60;99.90;;;;;;5064576;28;19962;-72
2021/04/16 05:44:15;;;;;;;;;;;-1.50;99.90;;;;;;5072543;28;20365;-73
2021/04/16 05:46:41;;;;;;;;;;;-1.40;99.90;;;;;;5070462;28;19908;-78
2021/04/16 05:49:06;;;;;;;;;;;-1.30;99.90;;;;;;5066919;28;19909;-76
2021/04/16 05:51:32;;;;;;;;;;;-1.20;99.90;;;;;;5071721;28;19912;-72
2021/04/16 05:53:57;;;;;;;;;;;-1.10;99.90;;;;;;5072083;28;20018;-72
2021/04/16 05:56:23;;;;;;;;;;;-1.00;99.90;;;;;;5069582;28;19912;-72
2021/04/16 05:58:49;;;;;;;;;;;-0.90;99.90;;;;;;5068809;28;20350;-76
2021/04/16 06:01:14;;;;;;;;;;;-0.80;99.90;;;;;;5056095;28;19936;-72
2021/04/16 06:03:41;;;;;;;;;;;-0.70;99.90;;;;;;5070698;28;19991;-73
2021/04/16 06:06:07;;;;;;;;;;;-0.60;99.90;;;;;;5063274;28;20293;-76
2021/04/16 06:08:32;;;;;;;;;;;-0.50;99.90;;;;;;5081714;28;19916;-72
2021/04/16 06:10:59;;;;;;;;;;;-0.40;99.90;;;;;;5092274;28;20335;-72
2021/04/16 06:13:25;;;;;;;;;;;-0.30;99.90;;;;;;5091397;28;20381;-72
2021/04/16 06:15:51;;;;;;;;;;;-0.20;99.90;;;;;;5090953;28;19969;-72
2021/04/16 06:18:17;;;;;;;;;;;-0.20;99.90;;;;;;5091663;28;20365;-74
2021/04/16 06:20:42;;;;;;;;;;;-0.10;99.90;;;;;;5091359;28;19991;-72
2021/04/16 06:23:08;;;;;;;;;;;0.00;99.90;;;;;;5091652;28;19915;-72
2021/04/16 06:25:34;;;;;;;;;;;0.10;99.90;;;;;;5091423;28;19912;-73
2021/04/16 06:28:01;;;;;;;;;;;0.20;99.90;;;;;;5091038;28;19908;-72
2021/04/16 06:30:27;;;;;;;;;;;0.30;99.90;;;;;;5092091;28;20285;-72
2021/04/16 06:33:15;;;;;;;;;;;0.40;99.90;;;;;;5091628;28;19912;-72
2021/04/16 06:35:45;;;;;;;;;;;0.50;99.90;;;;;;5066129;28;19916;-72
2021/04/16 06:38:11;;;;;;;;;;;0.70;99.90;;;;;;5070099;28;19909;-72
2021/04/16 06:40:36;;;;;;;;;;;0.80;99.90;;;;;;5070522;28;19968;-72
2021/04/16 06:43:02;;;;;;;;;;;1.00;99.90;;;;;;5070209;28;19917;-74
2021/04/16 06:45:29;;;;;;;;;;;1.10;99.90;;;;;;5070152;28;20322;-72
2021/04/16 06:47:59;;;;;;;;;;;1.20;99.90;;;;;;5069163;28;20357;-72
2021/04/16 06:50:26;;;;;;;;;;;1.40;99.90;;;;;;5070585;28;20249;-72
2021/04/16 06:52:58;;;;;;;;;;;1.40;99.90;;;;;;5070228;28;19908;-74
2021/04/16 06:55:44;;;;;;;;;;;1.40;99.90;;;;;;5070339;28;19990;-74
2021/04/16 06:58:17;;;;;;;;;;;1.50;99.90;;;;;;5068440;28;20184;-72
2021/04/16 07:00:43;;;;;;;;;;;1.70;99.90;;;;;;5070322;28;19912;-72
2021/04/16 07:03:27;;;;;;;;;;;1.80;99.90;;;;;;5069886;28;19963;-74
2021/04/16 07:06:10;;;;;;;;;;;1.90;99.90;;;;;;5062089;28;20029;-75
2021/04/16 07:08:42;;;;;;;;;;;2.00;99.90;;;;;;5069926;28;19992;-74
2021/04/16 07:11:19;;;;;;;;;;;2.20;99.90;;;;;;5070190;28;19909;-73
2021/04/16 07:13:44;;;;;;;;;;;2.40;99.90;;;;;;5068779;28;19948;-73
2021/04/16 07:16:10;;;;;;;;;;;2.50;99.90;;;;;;5069438;28;19959;-72
2021/04/16 07:18:41;;;;;;;;;;;2.60;99.90;;;;;;5070037;28;19909;-72
2021/04/16 07:21:08;;;;;;;;;;;3.00;99.90;;;;;;5069819;28;19916;-76
2021/04/16 07:23:41;;;;;;;;;;;3.60;99.90;;;;;;5069940;28;19982;-73
2021/04/16 07:26:13;;;;;;;;;;;4.20;99.90;;;;;;5068130;28;19909;-75
2021/04/16 07:28:41;;;;;;;;;;;5.00;99.90;;;;;;5069803;28;19915;-76
2021/04/16 07:31:26;;;;;;;;;;;5.60;99.90;;;;;;5070174;28;19908;-73
2021/04/16 07:33:52;;;;;;;;;;;6.10;99.90;;;;;;5067917;28;20337;-73
2021/04/16 07:36:38;;;;;;;;;;;6.60;99.90;;;;;;5023528;28;1279150;-73
2021/04/16 07:39:04;;;;;;;;;;;7.00;99.90;;;;;;5070382;28;20441;-73
2021/04/16 07:41:31;;;;;;;;;;;7.50;98.80;;;;;;5070709;28;19987;-74
2021/04/16 07:43:58;;;;;;;;;;;7.60;97.70;;;;;;5070352;28;19920;-73
2021/04/16 07:46:26;;;;;;;;;;;7.70;97.30;;;;;;5069574;28;19908;-74
2021/04/16 07:49:12;;;;;;;;;;;7.80;97.40;;;;;;5070284;28;19915;-73
2021/04/16 07:51:38;;;;;;;;;;;7.70;96.50;;;;;;5070123;28;19916;-74
2021/04/16 07:54:15;;;;;;;;;;;8.20;97.20;;;;;;5069214;28;19919;-74
2021/04/16 07:56:41;;;;;;;;;;;8.60;95.70;;;;;;5069504;28;20346;-73
2021/04/16 07:59:11;;;;;;;;;;;9.10;95.20;;;;;;5070464;28;19932;-74
2021/04/16 08:01:41;;;;;;;;;;;9.30;94.00;;;;;;5070196;28;20396;-73
2021/04/16 08:04:13;;;;;;;;;;;9.40;93.70;;;;;;5069013;28;19915;-73
2021/04/16 08:06:39;;;;;;;;;;;9.50;92.80;;;;;;5068801;28;19908;-74
2021/04/16 08:09:08;;;;;;;;;;;9.40;92.70;;;;;;5069914;28;20023;-74
2021/04/16 08:11:34;;;;;;;;;;;9.40;92.80;;;;;;5070506;28;20293;-75
2021/04/16 08:14:20;;;;;;;;;;;9.30;92.60;;;;;;5070298;28;19908;-76
2021/04/16 08:16:54;;;;;;;;;;;9.30;92.80;;;;;;5069547;28;19912;-74
2021/04/16 08:19:29;;;;;;;;;;;9.30;92.30;;;;;;5069866;28;19909;-74
2021/04/16 08:21:57;;;;;;;;;;;8.90;92.10;;;;;;5069805;28;19913;-74
2021/04/16 08:24:42;;;;;;;;;;;8.40;92.00;;;;;;5068948;28;19912;-75
2021/04/16 08:27:07;;;;;;;;;;;8.00;92.10;;;;;;5069448;28;19984;-73
2021/04/16 08:29:38;;;;;;;;;;;7.20;93.00;;;;;;5070151;28;19908;-73
2021/04/16 08:32:19;;;;;;;;;;;6.70;94.10;;;;;;5070063;28;19920;-74
2021/04/16 08:34:47;;;;;;;;;;;6.50;95.00;;;;;;5068881;28;20341;-74
2021/04/16 08:37:18;;;;;;;;;;;6.60;95.60;;;;;;5070752;28;20434;-75
2021/04/16 08:39:44;;;;;;;;;;;6.60;95.90;;;;;;5073748;28;19955;-73
2021/04/16 08:42:14;;;;;;;;;;;6.70;95.80;;;;;;5073481;28;19908;-73
2021/04/16 08:44:53;;;;;;;;;;;6.70;95.90;;;;;;5073643;28;19909;-73
2021/04/16 08:47:24;;;;;;;;;;;6.30;95.00;;;;;;5071010;28;20285;-76
2021/04/16 08:49:51;;;;;;;;;;;6.10;95.80;;;;;;5073318;28;20370;-73
2021/04/16 08:52:20;;;;;;;;;;;6.00;96.10;;;;;;5073563;28;19956;-76
2021/04/16 08:54:49;;;;;;;;;;;5.80;96.30;;;;;;5073378;28;19908;-73
2021/04/16 08:57:18;;;;;;;;;;;5.50;96.40;;;;;;5072215;28;19919;-76
2021/04/16 08:59:58;;;;;;;;;;;5.40;97.00;;;;;;5073323;28;19954;-73
2021/04/16 09:02:29;;;;;;;;;;;5.40;97.10;;;;;;5073268;28;19909;-73
2021/04/16 09:04:56;;;;;;;;;;;5.40;97.50;;;;;;5072085;28;19915;-75
2021/04/16 09:07:37;;;;;;;;;;;5.50;97.50;;;;;;5071478;28;19920;-73
2021/04/16 09:10:25;;;;;;;;;;;5.70;97.30;;;;;;5073347;28;19970;-73
2021/04/16 09:12:52;;;;;;;;;;;6.00;97.80;;;;;;5073327;28;19912;-73
2021/04/16 09:15:20;;;;;;;;;;;6.40;96.90;;;;;;5073752;28;19919;-74
2021/04/16 09:17:52;;;;;;;;;;;6.50;96.50;;;;;;5071391;28;20376;-74
2021/04/16 09:20:22;;;;;;;;;;;6.70;96.50;;;;;;5073201;28;19909;-75
2021/04/16 09:22:49;;;;;;;;;;;7.10;95.80;;;;;;5072762;28;20274;-74
2021/04/16 09:25:34;;;;;;;;;;;7.20;95.30;;;;;;5073194;28;19909;-73
2021/04/16 09:28:18;;;;;;;;;;;7.40;95.60;;;;;;5072260;28;19908;-77
2021/04/16 09:30:43;;;;;;;;;;;7.50;95.00;;;;;;5072912;28;20290;-77
2021/04/16 09:33:16;;;;;;;;;;;7.30;95.00;;;;;;5072691;28;19966;-73
2021/04/16 09:35:46;;;;;;;;;;;7.20;94.70;;;;;;5063310;28;19959;-74
2021/04/16 09:38:24;;;;;;;;;;;7.20;95.50;;;;;;5072324;28;19909;-74
2021/04/16 09:41:09;;;;;;;;;;;7.60;95.50;;;;;;5072719;28;19912;-74
2021/04/16 09:43:34;;;;;;;;;;;7.90;93.50;;;;;;5072759;28;19908;-74
2021/04/16 09:46:00;;;;;;;;;;;8.40;94.60;;;;;;5072066;28;20331;-75
2021/04/16 09:48:45;;;;;;;;;;;8.70;92.90;;;;;;5071596;28;19915;-74
2021/04/16 09:51:10;;;;;;;;;;;8.70;92.30;;;;;;5072618;28;19913;-74
2021/04/16 09:53:37;;;;;;;;;;;8.30;92.00;;;;;;5073046;28;19909;-73
2021/04/16 09:56:02;;;;;;;;;;;8.10;93.40;;;;;;5072153;28;20374;-74
2021/04/16 09:58:35;;;;;;;;;;;8.50;93.10;;;;;;5072494;28;19908;-74
2021/04/16 10:01:06;;;;;;;;;;;8.50;91.80;;;;;;5072747;28;20332;-76
2021/04/16 10:03:32;;;;;;;;;;;8.50;92.10;;;;;;5071317;28;20378;-73
2021/04/16 10:05:58;;;;;;;;;;;8.70;91.80;;;;;;5071249;28;19920;-73
2021/04/16 10:08:24;;;;;;;;;;;8.50;92.00;;;;;;5071845;28;19915;-73
2021/04/16 10:10:50;;;;;;;;;;;8.30;92.50;;;;;;5072128;28;19999;-73
2021/04/16 10:13:21;;;;;;;;;;;7.90;92.30;;;;;;5071734;28;20003;-73
2021/04/16 10:15:53;;;;;;;;;;;7.60;92.50;;;;;;5069876;28;20354;-73
2021/04/16 10:18:38;;;;;;;;;;;7.40;92.80;;;;;;5066167;28;19912;-74
2021/04/16 10:21:07;;;;;;;;;;;7.30;92.30;;;;;;5067214;28;20405;-73
2021/04/16 10:23:35;;;;;;;;;;;7.20;92.40;;;;;;5051970;28;19920;-73
2021/04/16 11:20:52;;;;;;;;;;;8.30;86.70;;;;;;5070618;28;19915;-74
2021/04/16 12:39:33;;;;;;;;;;;6.00;94.80;;;;;;5073485;28;19915;-73
2021/04/16 12:41:58;;;;;;;;;;;5.90;94.00;;;;;;5073811;28;19920;-74
2021/04/16 12:44:30;;;;;;;;;;;6.00;94.10;;;;;;5073334;28;19908;-74
2021/04/16 12:47:06;;;;;;;;;;;6.10;93.80;;;;;;5072624;28;19908;-75
2021/04/16 12:49:32;;;;;;;;;;;6.10;93.30;;;;;;5073032;28;19919;-72
2021/04/16 12:51:57;;;;;;;;;;;6.00;93.40;;;;;;5073537;28;19992;-72
2021/04/16 12:54:23;;;;;;;;;;;6.00;93.70;;;;;;5073052;28;19913;-73
2021/04/16 12:56:49;;;;;;;;;;;6.00;94.00;;;;;;5072401;28;19913;-72
2021/04/16 12:59:16;;;;;;;;;;;5.90;94.00;;;;;;5072742;28;19918;-72
2021/04/16 13:01:46;;;;;;;;;;;5.80;94.40;;;;;;5073255;28;19908;-73
2021/04/16 13:04:13;;;;;;;;;;;5.80;94.30;;;;;;5068958;28;19916;-73
2021/04/16 13:06:39;;;;;;;;;;;5.80;94.30;;;;;;5068721;28;19920;-75
2021/04/16 13:09:05;;;;;;;;;;;5.80;94.50;;;;;;5092559;28;19924;-76
2021/04/16 13:11:31;;;;;;;;;;;5.80;94.20;;;;;;5093355;28;19908;-73
2021/04/16 13:13:57;;;;;;;;;;;5.80;93.70;;;;;;5092970;28;19914;-76
2021/04/16 13:16:23;;;;;;;;;;;5.80;93.90;;;;;;5091985;28;19977;-76
2021/04/16 13:18:50;;;;;;;;;;;5.80;93.90;;;;;;5092814;28;19945;-73
2021/04/16 13:21:19;;;;;;;;;;;5.90;93.60;;;;;;5091415;28;19920;-73
2021/04/16 13:23:45;;;;;;;;;;;5.80;93.30;;;;;;5092741;28;19912;-74
2021/04/16 13:26:11;;;;;;;;;;;5.80;93.50;;;;;;5092037;28;19915;-76
2021/04/16 13:28:36;;;;;;;;;;;5.70;93.60;;;;;;5092420;28;19955;-73
2021/04/16 13:31:02;;;;;;;;;;;5.70;93.60;;;;;;5092853;28;19912;-73
2021/04/16 13:33:28;;;;;;;;;;;5.60;93.80;;;;;;5087584;28;20281;-73
2021/04/16 13:35:54;;;;;;;;;;;5.60;93.70;;;;;;5071369;28;19916;-74
2021/04/16 13:38:22;;;;;;;;;;;5.60;93.60;;;;;;5071693;28;19913;-73
2021/04/16 13:40:48;;;;;;;;;;;5.60;93.70;;;;;;5072582;28;19912;-73
2021/04/16 13:43:14;;;;;;;;;;;5.70;93.80;;;;;;5072380;28;19908;-73
2021/04/16 13:45:40;;;;;;;;;;;5.70;93.80;;;;;;5071763;28;20258;-77
2021/04/16 13:48:06;;;;;;;;;;;5.70;93.40;;;;;;5071888;28;19908;-77
2021/04/16 13:50:32;;;;;;;;;;;5.70;93.60;;;;;;5071996;28;19916;-73
2021/04/16 13:52:57;;;;;;;;;;;5.70;93.80;;;;;;5071926;28;19909;-72
2021/04/16 13:55:23;;;;;;;;;;;5.80;94.10;;;;;;5072140;28;20294;-73
2021/04/16 13:57:49;;;;;;;;;;;5.90;94.20;;;;;;5070601;28;19992;-73
2021/04/16 14:00:17;;;;;;;;;;;6.00;94.10;;;;;;5072488;28;20380;-73
2021/04/16 14:02:46;;;;;;;;;;;6.00;93.90;;;;;;5072107;28;20455;-73
2021/04/16 14:05:17;;;;;;;;;;;6.10;93.50;;;;;;5070137;28;19954;-77
2021/04/16 14:07:43;;;;;;;;;;;6.20;93.80;;;;;;5070545;28;20346;-73
2021/04/16 14:10:09;;;;;;;;;;;6.20;93.80;;;;;;5071989;28;19909;-73
2021/04/16 14:12:35;;;;;;;;;;;6.20;93.90;;;;;;5071849;28;19915;-73
2021/04/16 14:15:00;;;;;;;;;;;6.20;93.50;;;;;;5071919;28;19991;-75
2021/04/16 14:17:32;;;;;;;;;;;6.20;94.10;;;;;;5070863;28;19912;-75
2021/04/16 14:20:04;;;;;;;;;;;6.30;94.60;;;;;;5071784;28;19909;-72
2021/04/16 14:22:36;;;;;;;;;;;6.30;94.10;;;;;;5071814;28;20296;-72
2021/04/16 14:25:04;;;;;;;;;;;6.30;93.90;;;;;;5071640;28;19908;-72
2021/04/16 14:27:29;;;;;;;;;;;6.20;94.00;;;;;;5070560;28;19955;-73
2021/04/16 14:29:55;;;;;;;;;;;6.30;94.40;;;;;;5071991;28;19924;-73
2021/04/16 14:32:22;;;;;;;;;;;6.10;94.00;;;;;;5071846;28;19908;-73
2021/04/16 14:34:47;;;;;;;;;;;6.10;94.50;;;;;;5070012;28;19954;-73
2021/04/16 14:37:13;;;;;;;;;;;6.20;93.70;;;;;;5070212;28;19920;-73
2021/04/16 14:39:39;;;;;;;;;;;6.20;93.40;;;;;;5071485;28;19915;-75
2021/04/16 14:42:05;;;;;;;;;;;6.20;93.70;;;;;;5071600;28;19916;-72
2021/04/16 14:44:31;;;;;;;;;;;6.30;93.30;;;;;;5071508;28;20281;-73
2021/04/16 14:46:57;;;;;;;;;;;6.30;93.50;;;;;;5070359;28;19919;-75
2021/04/16 14:49:27;;;;;;;;;;;6.30;93.30;;;;;;5071261;28;19973;-73
2021/04/16 14:51:54;;;;;;;;;;;6.40;93.20;;;;;;5071141;28;19920;-76
2021/04/16 14:54:27;;;;;;;;;;;6.50;93.40;;;;;;5071390;28;19909;-73
2021/04/16 14:56:53;;;;;;;;;;;6.60;93.70;;;;;;5070151;28;19920;-75
2021/04/16 14:59:28;;;;;;;;;;;6.60;92.90;;;;;;5070930;28;19909;-76
2021/04/16 15:01:54;;;;;;;;;;;6.70;93.10;;;;;;5071294;28;19912;-73
2021/04/16 15:04:20;;;;;;;;;;;6.70;92.70;;;;;;5069815;28;19908;-73
2021/04/16 15:06:46;;;;;;;;;;;6.80;93.10;;;;;;5069934;28;19909;-73
2021/04/16 15:09:13;;;;;;;;;;;6.80;93.00;;;;;;5071162;28;20358;-73
2021/04/16 15:11:46;;;;;;;;;;;6.80;92.90;;;;;;5071054;28;19909;-72
2021/04/16 15:14:14;;;;;;;;;;;6.70;92.70;;;;;;5071001;28;19951;-74
2021/04/16 15:16:41;;;;;;;;;;;6.70;93.20;;;;;;5070116;28;19974;-73
2021/04/16 15:19:06;;;;;;;;;;;6.60;93.10;;;;;;5071160;28;19995;-73
2021/04/16 15:21:32;;;;;;;;;;;6.50;93.00;;;;;;5071114;28;20341;-74
2021/04/16 15:23:57;;;;;;;;;;;6.40;93.10;;;;;;5070692;28;19918;-73
2021/04/16 15:26:23;;;;;;;;;;;6.30;93.40;;;;;;5069745;28;20385;-73
2021/04/16 15:28:53;;;;;;;;;;;6.40;93.80;;;;;;5071023;28;19909;-72
2021/04/16 15:31:24;;;;;;;;;;;6.30;93.90;;;;;;5070879;28;20384;-73
2021/04/16 15:47:17;;;;;;;;;;;6.10;93.90;;;;;;5072245;28;19954;-73
2021/04/16 15:49:42;;;;;;;;;;;6.10;93.30;;;;;;5074699;28;19916;-73
2021/04/16 15:52:08;;;;;;;;;;;6.10;92.90;;;;;;5074475;28;19944;-76
2021/04/16 15:54:33;;;;;;;;;;;6.00;92.70;;;;;;5074792;28;20273;-73
2021/04/16 15:56:59;;;;;;;;;;;6.00;92.50;;;;;;5073529;28;19919;-72
2021/04/16 15:59:33;;;;;;;;;;;6.00;92.70;;;;;;5074625;28;20365;-74
2021/04/16 16:02:06;;;;;;;;;;;5.90;92.40;;;;;;5074478;28;19959;-76
2021/04/16 16:04:32;;;;;;;;;;;5.90;92.50;;;;;;5073393;28;20030;-72
2021/04/16 16:06:59;;;;;;;;;;;5.90;92.60;;;;;;5073491;28;20349;-73
2021/04/16 16:09:25;;;;;;;;;;;5.90;92.60;;;;;;5074576;28;19957;-73
2021/04/16 16:11:53;;;;;;;;;;;5.90;92.50;;;;;;5072447;28;20326;-72
2021/04/16 16:14:22;;;;;;;;;;;5.90;92.70;;;;;;5074239;28;20011;-74
2021/04/16 16:16:48;;;;;;;;;;;5.90;92.80;;;;;;5073062;28;19920;-73
2021/04/16 16:19:14;;;;;;;;;;;5.80;92.80;;;;;;5074246;28;19908;-73
2021/04/16 16:21:40;;;;;;;;;;;5.70;93.00;;;;;;5074302;28;19948;-73
2021/04/16 16:24:06;;;;;;;;;;;5.70;93.40;;;;;;5072077;28;19997;-72
2021/04/16 16:26:40;;;;;;;;;;;5.60;93.40;;;;;;5072968;28;19909;-72
2021/04/16 16:29:10;;;;;;;;;;;5.60;93.60;;;;;;5073970;28;20006;-75
2021/04/16 16:31:36;;;;;;;;;;;5.60;93.90;;;;;;5074535;28;19916;-72
2021/04/16 16:34:01;;;;;;;;;;;5.60;93.70;;;;;;5072716;28;19909;-73
2021/04/16 16:36:27;;;;;;;;;;;5.50;93.70;;;;;;5072644;28;20299;-72
2021/04/16 16:38:53;;;;;;;;;;;5.50;93.80;;;;;;5073738;28;20494;-72
2021/04/16 16:41:19;;;;;;;;;;;5.40;93.90;;;;;;5073750;28;20003;-73
2021/04/16 16:43:46;;;;;;;;;;;5.30;94.20;;;;;;5074095;28;19909;-72
2021/04/16 16:46:16;;;;;;;;;;;5.30;94.40;;;;;;5072597;28;19912;-75
2021/04/16 16:48:42;;;;;;;;;;;5.20;94.50;;;;;;5073772;28;19908;-74
2021/04/16 16:51:08;;;;;;;;;;;5.20;94.60;;;;;;5073800;28;19908;-73